Granite Falls, WA (98252)

5:41 PM PDT on August 20, 2014 (GMT -0700)
Rainbow Springs | Change Station
CLOSE
Current Station
Personal Weather Station
Location: Granite Falls, WA
Elevation: 250 ft
Nearby Weather Stations

Elev 250 ft 48.11 °N, 122.01 °W | Updated 0 second ago

Clear
Clear
75.7 °F
Feels Like 78 °F
N
0.0
Wind Variable Wind from SW
Gusts 0.0 mph

Today
High -- | Low -- °F
--% Chance of Precip.
Yesterday
High -- | Low -- °F
Precip. -- in
6:08 AM 8:10 PM
Waning Crescent, 18% visible
Pressure 29.97 in
Visibility 10.0 miles
Clouds Clear
Heat Index 78 °F
Dew Point 56 °F
Humidity 50%
Rainfall 0.00 in
Snow Depth 0 in
UV 2 out of 12
Pollen 2.70 out of 12
PM2.5 Good
Flu Activity Not available.
METAR KAWO 210035Z AUTO 22007KT 10SM CLR 22/12 A2997 RMK AO1

More Conditions Fewer Conditions

Pressure 29.97 in
Visibility 10.0 miles
Clouds Clear
Heat Index 78 °F
Dew Point 56 °F
Humidity 50%
Rainfall 0.00 in
Snow Depth 0 in
UV 2 out of 12
Pollen 2.70 out of 12
PM2.5 Good
Flu Activity Not available.
METAR KAWO 210035Z AUTO 22007KT 10SM CLR 22/12 A2997 RMK AO1

More Conditions Fewer Conditions

10-Day Weather Forecast

Almanac

Astronomy

Aug. 20, 2014 Rise Set
Actual Time 6:08 AM PDT 8:10 PM PDT
Civil Twilight 5:34 AM PDT 8:44 PM PDT
Nautical Twilight 4:53 AM PDT 9:25 PM PDT
Astronomical Twilight 4:06 AM PDT 10:11 PM PDT
Moon 1:44 AM PDT (8/20) 5:07 PM PDT (8/20)
Length of Visible Light 15h 09m
Length of Day
14h 02m
Tomorrow will be 3m 13s shorter.
Waning Crescent, 18% of the Moon is Illuminated
Today
Waning Crescent
Aug 25
New
Sep 2
First Quarter
Sep 8
Full
Sep 15
Last Quarter

Today's Extremes

State Highs State Lows

Community

WunderPhotos

Upload Photos

1,745,823 photos uploaded!

WunderBlogs® & News

Nearby

Air Quality

  Air Quality AQ Index Pollutant
Yesterday Good
OZONE
Yesterday Good
PM2.5
Current Good
PM2.5
Wednesday Good
OZONE
Wednesday Good
PM2.5
Thursday Good
OZONE
Thursday Good
PM2.5
Friday Good
OZONE
Friday Good
PM2.5
Saturday Good
OZONE
Saturday Good
PM2.5

Snow Depth

Station Depth Elevation
Alpine Meadows 0 in 3500 ft
Park Creek Ridge 0 in 4600 ft
Thunder Basin 1 in 4200 ft
Olallie Meadows 2 in 3700 ft
Meadows Pass 0 in 3500 ft

Earthquake Activity

City Distance Mag. Time & Date
No recent earthquake activity has been reported nearby.
Minimum magnitude displayed is 2.5.

Coastal Water Temperatures

Place Temperature
Port Townsend, WA 55.9 °F
Seattle, WA 55.9 °F
Friday Harbor, WA 54.0 °F
Tacoma, WA 55.9 °F

Nearby Weather Stations